FBZ5230 SABE-SANE
Flight info
| Callsign | FBZ5230 |
|---|---|
| Flight time | 1h 37m |
| Altitude | 32000 |
| Route | BIVAM4B BIVAM UW8 ERE UT680 EDVIK |
| Aircraft | B738/M-SDFGHIRWZ/S |
Departure
| Time | 2026-05-07 16:08 |
|---|---|
| Airport | Aeroparque Jorge Newbery (SABE) |
Arrival
| Time | 2026-05-07 17:45 |
|---|---|
| Airport | Vicecomodoro Angel D. La Paz Aragonés Airport (SANE) |
| Time | Latitude | Longitude | Altitude | Speed | Heading |
|---|---|---|---|---|---|
| 2026-05-07 15:43 | -34.56002 | -58.40958 | 27 ft | 0 kts | 39° |
| 2026-05-07 16:00 | -34.56003 | -58.40959 | 27 ft | 1 kts | 39° |
| 2026-05-07 16:00 | -34.56015 | -58.40971 | 27 ft | 2 kts | 39° |
| 2026-05-07 16:00 | -34.56022 | -58.40978 | 27 ft | 2 kts | 33° |
| 2026-05-07 16:00 | -34.56037 | -58.40983 | 27 ft | 2 kts | 355° |
| 2026-05-07 16:01 | -34.56051 | -58.40977 | 27 ft | 2 kts | 324° |
| 2026-05-07 16:01 | -34.56058 | -58.40970 | 27 ft | 1 kts | 306° |
| 2026-05-07 16:01 | -34.56061 | -58.40963 | 27 ft | 0 kts | 305° |
| 2026-05-07 16:03 | -34.56061 | -58.40964 | 27 ft | 0 kts | 305° |
| 2026-05-07 16:03 | -34.56052 | -58.40979 | 27 ft | 4 kts | 306° |
| 2026-05-07 16:03 | -34.56028 | -58.41024 | 27 ft | 5 kts | 283° |
| 2026-05-07 16:03 | -34.56050 | -58.41056 | 27 ft | 6 kts | 186° |
| 2026-05-07 16:04 | -34.56096 | -58.41018 | 27 ft | 9 kts | 127° |
| 2026-05-07 16:04 | -34.56142 | -58.40940 | 27 ft | 12 kts | 125° |
| 2026-05-07 16:04 | -34.56166 | -58.40843 | 27 ft | 11 kts | 99° |
| 2026-05-07 16:04 | -34.56201 | -58.40768 | 27 ft | 9 kts | 124° |
| 2026-05-07 16:05 | -34.56235 | -58.40707 | 27 ft | 7 kts | 124° |
| 2026-05-07 16:05 | -34.56264 | -58.40657 | 27 ft | 6 kts | 124° |
| 2026-05-07 16:05 | -34.56287 | -58.40614 | 27 ft | 5 kts | 124° |
| 2026-05-07 16:05 | -34.56317 | -58.40570 | 27 ft | 8 kts | 134° |
| 2026-05-07 16:06 | -34.56364 | -58.40517 | 27 ft | 8 kts | 138° |
| 2026-05-07 16:06 | -34.56397 | -58.40482 | 27 ft | 4 kts | 138° |
| 2026-05-07 16:06 | -34.56424 | -58.40453 | 27 ft | 6 kts | 138° |
| 2026-05-07 16:06 | -34.56466 | -58.40408 | 27 ft | 8 kts | 138° |
| 2026-05-07 16:07 | -34.56510 | -58.40385 | 27 ft | 6 kts | 189° |
| 2026-05-07 16:07 | -34.56543 | -58.40407 | 27 ft | 5 kts | 229° |
| 2026-05-07 16:07 | -34.56547 | -58.40454 | 27 ft | 8 kts | 293° |
| 2026-05-07 16:07 | -34.56385 | -58.40746 | 27 ft | 77 kts | 304° |
| 2026-05-07 16:08 | -34.55954 | -58.41516 | 28 ft | 140 kts | 303° |
| 2026-05-07 16:08 | -34.55350 | -58.42591 | 406 ft | 158 kts | 302° |
| 2026-05-07 16:08 | -34.54719 | -58.43713 | 1013 ft | 166 kts | 308° |
| 2026-05-07 16:08 | -34.53752 | -58.44441 | 1605 ft | 175 kts | 347° |
| 2026-05-07 16:09 | -34.52528 | -58.44207 | 1940 ft | 190 kts | 28° |
| 2026-05-07 16:09 | -34.51389 | -58.43263 | 2190 ft | 213 kts | 35° |
| 2026-05-07 16:09 | -34.50103 | -58.42197 | 2484 ft | 237 kts | 31° |
| 2026-05-07 16:09 | -34.48640 | -58.41086 | 2927 ft | 255 kts | 31° |
| 2026-05-07 16:10 | -34.47096 | -58.39890 | 3541 ft | 266 kts | 31° |
| 2026-05-07 16:10 | -34.45547 | -58.38682 | 4274 ft | 270 kts | 31° |
| 2026-05-07 16:10 | -34.43952 | -58.37453 | 5042 ft | 273 kts | 31° |
| 2026-05-07 16:10 | -34.42327 | -58.36200 | 5714 ft | 280 kts | 31° |
| 2026-05-07 16:11 | -34.40609 | -58.35218 | 6513 ft | 279 kts | 11° |
| 2026-05-07 16:11 | -34.38689 | -58.35301 | 7225 ft | 280 kts | 339° |
| 2026-05-07 16:11 | -34.37048 | -58.36531 | 8084 ft | 277 kts | 320° |
| 2026-05-07 16:11 | -34.35526 | -58.37959 | 8798 ft | 282 kts | 323° |
| 2026-05-07 16:12 | -34.33896 | -58.39299 | 9564 ft | 286 kts | 325° |
| 2026-05-07 16:12 | -34.32233 | -58.40639 | 10050 ft | 300 kts | 325° |
| 2026-05-07 16:12 | -34.30411 | -58.42105 | 10187 ft | 325 kts | 325° |
| 2026-05-07 16:12 | -34.28461 | -58.43662 | 10433 ft | 346 kts | 326° |
| 2026-05-07 16:13 | -34.26398 | -58.45304 | 10864 ft | 358 kts | 326° |
| 2026-05-07 16:13 | -34.24308 | -58.46965 | 11484 ft | 365 kts | 326° |
| 2026-05-07 16:13 | -34.22194 | -58.48645 | 12172 ft | 369 kts | 326° |
| 2026-05-07 16:13 | -34.20050 | -58.50348 | 12979 ft | 370 kts | 325° |
| 2026-05-07 16:14 | -34.17909 | -58.52048 | 13665 ft | 374 kts | 325° |
| 2026-05-07 16:14 | -34.15738 | -58.53772 | 14406 ft | 376 kts | 324° |
| 2026-05-07 16:14 | -34.13554 | -58.55507 | 15113 ft | 379 kts | 324° |
| 2026-05-07 16:14 | -34.11395 | -58.57318 | 15783 ft | 380 kts | 317° |
| 2026-05-07 16:15 | -34.09704 | -58.59757 | 16434 ft | 378 kts | 295° |
| 2026-05-07 16:15 | -34.08970 | -58.62748 | 17133 ft | 376 kts | 273° |
| 2026-05-07 16:15 | -34.09312 | -58.65883 | 17706 ft | 380 kts | 250° |
| 2026-05-07 16:15 | -34.10695 | -58.68606 | 18358 ft | 385 kts | 230° |
| 2026-05-07 16:16 | -34.12714 | -58.70758 | 18952 ft | 390 kts | 221° |
| 2026-05-07 16:16 | -34.14656 | -58.72962 | 19404 ft | 391 kts | 235° |
| 2026-05-07 16:16 | -34.15831 | -58.75887 | 20031 ft | 386 kts | 258° |
| 2026-05-07 16:16 | -34.15935 | -58.79102 | 20573 ft | 387 kts | 279° |
| 2026-05-07 16:17 | -34.14972 | -58.82120 | 21102 ft | 392 kts | 299° |
| 2026-05-07 16:17 | -34.13510 | -58.84909 | 21655 ft | 393 kts | 300° |
| 2026-05-07 16:17 | -34.12249 | -58.87849 | 22137 ft | 394 kts | 293° |
| 2026-05-07 16:17 | -34.11055 | -58.90815 | 22626 ft | 396 kts | 300° |
| 2026-05-07 16:18 | -34.09322 | -58.93460 | 23083 ft | 400 kts | 316° |
| 2026-05-07 16:18 | -34.07201 | -58.95566 | 23572 ft | 402 kts | 320° |
| 2026-05-07 16:18 | -34.04951 | -58.97623 | 23981 ft | 405 kts | 324° |
| 2026-05-07 16:18 | -34.02464 | -58.99235 | 24395 ft | 410 kts | 337° |
| 2026-05-07 16:19 | -33.99690 | -59.00039 | 24864 ft | 414 kts | 346° |
| 2026-05-07 16:19 | -33.96854 | -59.00701 | 25140 ft | 419 kts | 346° |
| 2026-05-07 16:19 | -33.93953 | -59.01120 | 25693 ft | 419 kts | 354° |
| 2026-05-07 16:19 | -33.91075 | -59.00996 | 26307 ft | 419 kts | 359° |
| 2026-05-07 16:20 | -33.88174 | -59.01107 | 26561 ft | 415 kts | 344° |
| 2026-05-07 16:20 | -33.85563 | -59.02313 | 27329 ft | 397 kts | 327° |
| 2026-05-07 16:20 | -33.83250 | -59.04155 | 27700 ft | 398 kts | 323° |
| 2026-05-07 16:20 | -33.80965 | -59.06002 | 28151 ft | 397 kts | 325° |
| 2026-05-07 16:21 | -33.78654 | -59.07760 | 28718 ft | 393 kts | 325° |
| 2026-05-07 16:21 | -33.76343 | -59.09520 | 29089 ft | 394 kts | 324° |
| 2026-05-07 16:21 | -33.74040 | -59.11263 | 29548 ft | 392 kts | 325° |
| 2026-05-07 16:21 | -33.71753 | -59.12967 | 29985 ft | 390 kts | 325° |
| 2026-05-07 16:22 | -33.69455 | -59.14662 | 30392 ft | 389 kts | 325° |
| 2026-05-07 16:22 | -33.67157 | -59.16349 | 30801 ft | 388 kts | 324° |
| 2026-05-07 16:22 | -33.64862 | -59.18030 | 31193 ft | 387 kts | 324° |
| 2026-05-07 16:22 | -33.62580 | -59.19694 | 31570 ft | 385 kts | 324° |
| 2026-05-07 16:23 | -33.60279 | -59.21372 | 31662 ft | 389 kts | 324° |
| 2026-05-07 16:23 | -33.55683 | -59.24708 | 31669 ft | 386 kts | 324° |
| 2026-05-07 16:24 | -33.51088 | -59.28037 | 31669 ft | 385 kts | 324° |
| 2026-05-07 16:24 | -33.46510 | -59.31347 | 31669 ft | 385 kts | 324° |
| 2026-05-07 16:25 | -33.41928 | -59.34655 | 31672 ft | 385 kts | 324° |
| 2026-05-07 16:25 | -33.37359 | -59.37949 | 31689 ft | 385 kts | 324° |
| 2026-05-07 16:26 | -33.32793 | -59.41236 | 31716 ft | 384 kts | 324° |
| 2026-05-07 16:26 | -33.28232 | -59.44516 | 31754 ft | 384 kts | 324° |
| 2026-05-07 16:27 | -33.23671 | -59.47790 | 31777 ft | 385 kts | 324° |
| 2026-05-07 16:27 | -33.19087 | -59.51079 | 31796 ft | 384 kts | 324° |
| 2026-05-07 16:28 | -33.14529 | -59.54343 | 31804 ft | 384 kts | 324° |
| 2026-05-07 16:28 | -33.09932 | -59.57632 | 31804 ft | 383 kts | 324° |
| 2026-05-07 16:29 | -33.05411 | -59.60860 | 31803 ft | 376 kts | 323° |
| 2026-05-07 16:29 | -33.00977 | -59.64023 | 31804 ft | 369 kts | 323° |
| 2026-05-07 16:30 | -32.96837 | -59.66975 | 31804 ft | 364 kts | 323° |
| 2026-05-07 16:30 | -32.92495 | -59.70067 | 31804 ft | 362 kts | 323° |
| 2026-05-07 16:31 | -32.88438 | -59.72954 | 31804 ft | 363 kts | 323° |
| 2026-05-07 16:31 | -32.84119 | -59.76023 | 31804 ft | 363 kts | 323° |
| 2026-05-07 16:32 | -32.79783 | -59.79100 | 31804 ft | 363 kts | 323° |
| 2026-05-07 16:32 | -32.75447 | -59.82174 | 31804 ft | 363 kts | 323° |
| 2026-05-07 16:33 | -32.71108 | -59.85246 | 31804 ft | 363 kts | 323° |
| 2026-05-07 16:33 | -32.66797 | -59.88295 | 31804 ft | 363 kts | 323° |
| 2026-05-07 16:34 | -32.62465 | -59.91355 | 31803 ft | 363 kts | 323° |
| 2026-05-07 16:34 | -32.58134 | -59.94411 | 31804 ft | 362 kts | 323° |
| 2026-05-07 16:35 | -32.53816 | -59.97460 | 31804 ft | 362 kts | 323° |
| 2026-05-07 16:35 | -32.49484 | -60.00515 | 31804 ft | 362 kts | 323° |
| 2026-05-07 16:36 | -32.45159 | -60.03560 | 31804 ft | 362 kts | 323° |
| 2026-05-07 16:36 | -32.40845 | -60.06596 | 31804 ft | 362 kts | 323° |
| 2026-05-07 16:37 | -32.36527 | -60.09630 | 31804 ft | 362 kts | 323° |
| 2026-05-07 16:37 | -32.32202 | -60.12665 | 31804 ft | 362 kts | 323° |
| 2026-05-07 16:38 | -32.27856 | -60.15712 | 31804 ft | 362 kts | 323° |
| 2026-05-07 16:38 | -32.23524 | -60.18746 | 31804 ft | 362 kts | 323° |
| 2026-05-07 16:39 | -32.19187 | -60.21780 | 31804 ft | 362 kts | 323° |
| 2026-05-07 16:39 | -32.14848 | -60.24812 | 31804 ft | 362 kts | 323° |
| 2026-05-07 16:40 | -32.10510 | -60.27840 | 31804 ft | 362 kts | 323° |
| 2026-05-07 16:40 | -32.06195 | -60.30849 | 31804 ft | 362 kts | 323° |
| 2026-05-07 16:41 | -32.01851 | -60.33874 | 31804 ft | 362 kts | 323° |
| 2026-05-07 16:41 | -31.97509 | -60.36895 | 31804 ft | 362 kts | 323° |
| 2026-05-07 16:42 | -31.93190 | -60.39896 | 31804 ft | 362 kts | 323° |
| 2026-05-07 16:42 | -31.88933 | -60.42851 | 31803 ft | 363 kts | 323° |
| 2026-05-07 16:43 | -31.84583 | -60.45866 | 31804 ft | 363 kts | 323° |
| 2026-05-07 16:43 | -31.80247 | -60.48881 | 31803 ft | 362 kts | 322° |
| 2026-05-07 16:44 | -31.76065 | -60.52087 | 31804 ft | 360 kts | 320° |
| 2026-05-07 16:44 | -31.71865 | -60.55300 | 31804 ft | 360 kts | 321° |
| 2026-05-07 16:45 | -31.67691 | -60.58484 | 31804 ft | 360 kts | 321° |
| 2026-05-07 16:45 | -31.63496 | -60.61679 | 31804 ft | 360 kts | 321° |
| 2026-05-07 16:46 | -31.59286 | -60.64880 | 31804 ft | 360 kts | 321° |
| 2026-05-07 16:46 | -31.55098 | -60.68061 | 31804 ft | 361 kts | 321° |
| 2026-05-07 16:47 | -31.50872 | -60.71267 | 31804 ft | 361 kts | 321° |
| 2026-05-07 16:47 | -31.46683 | -60.74441 | 31804 ft | 360 kts | 321° |
| 2026-05-07 16:48 | -31.42479 | -60.77624 | 31804 ft | 360 kts | 321° |
| 2026-05-07 16:48 | -31.38260 | -60.80814 | 31804 ft | 360 kts | 321° |
| 2026-05-07 16:49 | -31.34040 | -60.84001 | 31804 ft | 360 kts | 321° |
| 2026-05-07 16:49 | -31.29830 | -60.87178 | 31804 ft | 360 kts | 321° |
| 2026-05-07 16:50 | -31.25604 | -60.90362 | 31804 ft | 360 kts | 321° |
| 2026-05-07 16:50 | -31.21381 | -60.93542 | 31804 ft | 360 kts | 321° |
| 2026-05-07 16:51 | -31.17160 | -60.96716 | 31804 ft | 360 kts | 321° |
| 2026-05-07 16:51 | -31.12946 | -60.99882 | 31804 ft | 362 kts | 321° |
| 2026-05-07 16:52 | -31.08701 | -61.03068 | 31804 ft | 364 kts | 321° |
| 2026-05-07 16:52 | -31.04433 | -61.06267 | 31804 ft | 365 kts | 322° |
| 2026-05-07 16:53 | -31.00121 | -61.09491 | 31803 ft | 367 kts | 322° |
| 2026-05-07 16:53 | -30.95800 | -61.12715 | 31804 ft | 369 kts | 322° |
| 2026-05-07 16:54 | -30.91474 | -61.15938 | 31804 ft | 370 kts | 321° |
| 2026-05-07 16:54 | -30.87159 | -61.19152 | 31804 ft | 371 kts | 321° |
| 2026-05-07 16:55 | -30.82808 | -61.22387 | 31804 ft | 371 kts | 321° |
| 2026-05-07 16:55 | -30.78446 | -61.25627 | 31804 ft | 371 kts | 321° |
| 2026-05-07 16:56 | -30.74070 | -61.28875 | 31803 ft | 371 kts | 321° |
| 2026-05-07 16:56 | -30.67537 | -61.33716 | 31804 ft | 371 kts | 321° |
| 2026-05-07 16:57 | -30.63182 | -61.36939 | 31804 ft | 370 kts | 321° |
| 2026-05-07 16:57 | -30.58817 | -61.40167 | 31804 ft | 370 kts | 321° |
| 2026-05-07 16:58 | -30.54467 | -61.43379 | 31804 ft | 371 kts | 321° |
| 2026-05-07 16:58 | -30.50123 | -61.46585 | 31804 ft | 370 kts | 321° |
| 2026-05-07 16:59 | -30.45774 | -61.49789 | 31804 ft | 370 kts | 321° |
| 2026-05-07 16:59 | -30.41430 | -61.52988 | 31804 ft | 370 kts | 321° |
| 2026-05-07 17:00 | -30.37084 | -61.56183 | 31804 ft | 370 kts | 321° |
| 2026-05-07 17:00 | -30.32710 | -61.59397 | 31804 ft | 371 kts | 321° |
| 2026-05-07 17:01 | -30.28362 | -61.62587 | 31804 ft | 370 kts | 321° |
| 2026-05-07 17:01 | -30.24005 | -61.65780 | 31803 ft | 371 kts | 322° |
| 2026-05-07 17:02 | -30.19651 | -61.68969 | 31804 ft | 371 kts | 322° |
| 2026-05-07 17:02 | -30.15285 | -61.72161 | 31804 ft | 370 kts | 322° |
| 2026-05-07 17:03 | -30.10913 | -61.75355 | 31804 ft | 370 kts | 322° |
| 2026-05-07 17:03 | -30.06584 | -61.78515 | 31804 ft | 371 kts | 322° |
| 2026-05-07 17:04 | -30.02214 | -61.81702 | 31804 ft | 370 kts | 322° |
| 2026-05-07 17:04 | -29.97854 | -61.84877 | 31804 ft | 370 kts | 322° |
| 2026-05-07 17:05 | -29.93482 | -61.88058 | 31804 ft | 370 kts | 322° |
| 2026-05-07 17:05 | -29.89123 | -61.91241 | 31803 ft | 370 kts | 320° |
| 2026-05-07 17:06 | -29.85221 | -61.94967 | 31804 ft | 363 kts | 312° |
| 2026-05-07 17:06 | -29.81559 | -61.98939 | 31804 ft | 364 kts | 313° |
| 2026-05-07 17:07 | -29.77850 | -62.02942 | 31803 ft | 364 kts | 312° |
| 2026-05-07 17:07 | -29.74178 | -62.06941 | 31802 ft | 364 kts | 312° |
| 2026-05-07 17:08 | -29.70514 | -62.10928 | 31800 ft | 363 kts | 312° |
| 2026-05-07 17:08 | -29.66848 | -62.14921 | 31802 ft | 363 kts | 312° |
| 2026-05-07 17:09 | -29.63208 | -62.18883 | 31816 ft | 363 kts | 312° |
| 2026-05-07 17:09 | -29.59522 | -62.22893 | 31839 ft | 364 kts | 312° |
| 2026-05-07 17:10 | -29.55867 | -62.26865 | 31855 ft | 364 kts | 312° |
| 2026-05-07 17:10 | -29.52193 | -62.30855 | 31874 ft | 364 kts | 312° |
| 2026-05-07 17:11 | -29.48516 | -62.34841 | 31898 ft | 364 kts | 312° |
| 2026-05-07 17:11 | -29.44831 | -62.38834 | 31925 ft | 363 kts | 312° |
| 2026-05-07 17:12 | -29.41129 | -62.42840 | 31939 ft | 364 kts | 312° |
| 2026-05-07 17:12 | -29.37458 | -62.46810 | 31939 ft | 364 kts | 312° |
| 2026-05-07 17:13 | -29.33779 | -62.50783 | 31939 ft | 363 kts | 312° |
| 2026-05-07 17:13 | -29.30082 | -62.54773 | 31939 ft | 363 kts | 312° |
| 2026-05-07 17:14 | -29.26411 | -62.58730 | 31939 ft | 363 kts | 312° |
| 2026-05-07 17:14 | -29.22731 | -62.62691 | 31939 ft | 363 kts | 312° |
| 2026-05-07 17:15 | -29.19058 | -62.66642 | 31938 ft | 364 kts | 312° |
| 2026-05-07 17:15 | -29.15369 | -62.70606 | 31938 ft | 363 kts | 312° |
| 2026-05-07 17:16 | -29.11687 | -62.74557 | 31939 ft | 363 kts | 312° |
| 2026-05-07 17:16 | -29.07965 | -62.78548 | 31939 ft | 365 kts | 313° |
| 2026-05-07 17:17 | -29.04269 | -62.82505 | 31939 ft | 366 kts | 313° |
| 2026-05-07 17:17 | -29.00539 | -62.86498 | 31939 ft | 368 kts | 313° |
| 2026-05-07 17:18 | -28.96803 | -62.90491 | 31939 ft | 368 kts | 314° |
| 2026-05-07 17:18 | -28.93057 | -62.94490 | 31939 ft | 370 kts | 314° |
| 2026-05-07 17:19 | -28.89423 | -62.98365 | 31939 ft | 370 kts | 314° |
| 2026-05-07 17:19 | -28.85778 | -63.02248 | 31939 ft | 370 kts | 314° |
| 2026-05-07 17:20 | -28.82024 | -63.06243 | 31938 ft | 369 kts | 314° |
| 2026-05-07 17:20 | -28.78291 | -63.10211 | 31939 ft | 371 kts | 313° |
| 2026-05-07 17:21 | -28.74507 | -63.14230 | 31939 ft | 371 kts | 313° |
| 2026-05-07 17:21 | -28.70762 | -63.18202 | 31658 ft | 365 kts | 314° |
| 2026-05-07 17:22 | -28.68926 | -63.20147 | 31202 ft | 358 kts | 314° |
| 2026-05-07 17:22 | -28.67107 | -63.22073 | 30703 ft | 353 kts | 314° |
| 2026-05-07 17:22 | -28.65320 | -63.23967 | 30177 ft | 348 kts | 314° |
| 2026-05-07 17:22 | -28.63571 | -63.25819 | 29655 ft | 344 kts | 314° |
| 2026-05-07 17:23 | -28.61835 | -63.27657 | 29138 ft | 340 kts | 315° |
| 2026-05-07 17:23 | -28.60118 | -63.29473 | 28628 ft | 340 kts | 315° |
| 2026-05-07 17:23 | -28.58369 | -63.31323 | 28105 ft | 342 kts | 315° |
| 2026-05-07 17:23 | -28.56657 | -63.33131 | 27587 ft | 337 kts | 316° |
| 2026-05-07 17:24 | -28.54954 | -63.34930 | 27078 ft | 333 kts | 316° |
| 2026-05-07 17:24 | -28.53269 | -63.36709 | 26571 ft | 329 kts | 316° |
| 2026-05-07 17:24 | -28.51588 | -63.38482 | 26068 ft | 324 kts | 316° |
| 2026-05-07 17:24 | -28.49934 | -63.40227 | 25576 ft | 323 kts | 316° |
| 2026-05-07 17:25 | -28.48275 | -63.41976 | 25080 ft | 327 kts | 317° |
| 2026-05-07 17:25 | -28.46600 | -63.43742 | 24572 ft | 323 kts | 317° |
| 2026-05-07 17:25 | -28.44976 | -63.45452 | 24085 ft | 318 kts | 317° |
| 2026-05-07 17:25 | -28.43358 | -63.47156 | 23598 ft | 314 kts | 317° |
| 2026-05-07 17:26 | -28.41766 | -63.48832 | 23124 ft | 313 kts | 318° |
| 2026-05-07 17:26 | -28.40139 | -63.50542 | 22636 ft | 317 kts | 318° |
| 2026-05-07 17:26 | -28.38512 | -63.52253 | 22144 ft | 313 kts | 318° |
| 2026-05-07 17:26 | -28.36921 | -63.53925 | 21668 ft | 308 kts | 318° |
| 2026-05-07 17:27 | -28.35374 | -63.55550 | 21203 ft | 304 kts | 319° |
| 2026-05-07 17:27 | -28.33803 | -63.57200 | 20738 ft | 308 kts | 319° |
| 2026-05-07 17:27 | -28.32245 | -63.58834 | 20267 ft | 308 kts | 319° |
| 2026-05-07 17:27 | -28.30693 | -63.60464 | 19798 ft | 304 kts | 319° |
| 2026-05-07 17:28 | -28.29152 | -63.62080 | 19335 ft | 300 kts | 319° |
| 2026-05-07 17:28 | -28.27617 | -63.63689 | 18879 ft | 299 kts | 320° |
| 2026-05-07 17:28 | -28.26090 | -63.65288 | 18425 ft | 303 kts | 320° |
| 2026-05-07 17:28 | -28.24558 | -63.66893 | 17963 ft | 299 kts | 320° |
| 2026-05-07 17:29 | -28.23040 | -63.68483 | 17510 ft | 295 kts | 320° |
| 2026-05-07 17:29 | -28.21540 | -63.70053 | 17062 ft | 292 kts | 321° |
| 2026-05-07 17:29 | -28.20048 | -63.71612 | 16623 ft | 297 kts | 321° |
| 2026-05-07 17:29 | -28.18536 | -63.73193 | 16163 ft | 295 kts | 321° |
| 2026-05-07 17:30 | -28.17038 | -63.74761 | 15717 ft | 291 kts | 321° |
| 2026-05-07 17:30 | -28.15551 | -63.76315 | 15259 ft | 288 kts | 321° |
| 2026-05-07 17:30 | -28.14105 | -63.77825 | 14799 ft | 286 kts | 321° |
| 2026-05-07 17:30 | -28.12630 | -63.79363 | 14364 ft | 292 kts | 321° |
| 2026-05-07 17:31 | -28.11149 | -63.80909 | 13916 ft | 289 kts | 321° |
| 2026-05-07 17:31 | -28.09669 | -63.82455 | 13480 ft | 285 kts | 321° |
| 2026-05-07 17:31 | -28.08230 | -63.83956 | 13054 ft | 282 kts | 322° |
| 2026-05-07 17:31 | -28.06748 | -63.85445 | 12608 ft | 286 kts | 327° |
| 2026-05-07 17:32 | -28.05063 | -63.86561 | 12172 ft | 280 kts | 336° |
| 2026-05-07 17:32 | -28.03326 | -63.87569 | 11738 ft | 277 kts | 335° |
| 2026-05-07 17:32 | -28.01631 | -63.88598 | 11316 ft | 273 kts | 334° |
| 2026-05-07 17:32 | -28.00535 | -63.89260 | 11043 ft | 271 kts | 333° |
| 2026-05-07 17:33 | -27.98300 | -63.90602 | 10493 ft | 273 kts | 333° |
| 2026-05-07 17:33 | -27.96656 | -63.91591 | 10205 ft | 266 kts | 332° |
| 2026-05-07 17:33 | -27.95053 | -63.92554 | 10069 ft | 253 kts | 332° |
| 2026-05-07 17:33 | -27.94610 | -63.92820 | 10002 ft | 251 kts | 332° |
| 2026-05-07 17:34 | -27.93157 | -63.93692 | 9716 ft | 246 kts | 331° |
| 2026-05-07 17:34 | -27.91654 | -63.94594 | 9378 ft | 243 kts | 331° |
| 2026-05-07 17:34 | -27.90152 | -63.95495 | 9051 ft | 242 kts | 330° |
| 2026-05-07 17:35 | -27.88663 | -63.96389 | 8727 ft | 247 kts | 330° |
| 2026-05-07 17:35 | -27.87137 | -63.97303 | 8391 ft | 244 kts | 329° |
| 2026-05-07 17:35 | -27.85642 | -63.98199 | 8065 ft | 241 kts | 329° |
| 2026-05-07 17:35 | -27.84145 | -63.99097 | 7745 ft | 248 kts | 329° |
| 2026-05-07 17:36 | -27.82609 | -64.00016 | 7407 ft | 246 kts | 328° |
| 2026-05-07 17:36 | -27.81109 | -64.00914 | 7082 ft | 243 kts | 328° |
| 2026-05-07 17:36 | -27.79595 | -64.01821 | 6760 ft | 250 kts | 328° |
| 2026-05-07 17:36 | -27.78058 | -64.02741 | 6421 ft | 248 kts | 328° |
| 2026-05-07 17:37 | -27.76536 | -64.03651 | 6091 ft | 246 kts | 328° |
| 2026-05-07 17:37 | -27.75032 | -64.04551 | 5771 ft | 250 kts | 328° |
| 2026-05-07 17:37 | -27.73483 | -64.05477 | 5432 ft | 251 kts | 328° |
| 2026-05-07 17:37 | -27.71937 | -64.06400 | 5097 ft | 249 kts | 328° |
| 2026-05-07 17:38 | -27.70395 | -64.07321 | 4764 ft | 248 kts | 328° |
| 2026-05-07 17:38 | -27.68849 | -64.08247 | 4515 ft | 252 kts | 328° |
| 2026-05-07 17:38 | -27.67341 | -64.09144 | 4426 ft | 240 kts | 328° |
| 2026-05-07 17:38 | -27.65855 | -64.10032 | 4344 ft | 242 kts | 328° |
| 2026-05-07 17:39 | -27.64399 | -64.10899 | 4255 ft | 231 kts | 328° |
| 2026-05-07 17:39 | -27.63010 | -64.11774 | 4169 ft | 227 kts | 320° |
| 2026-05-07 17:39 | -27.62014 | -64.13065 | 4050 ft | 212 kts | 290° |
| 2026-05-07 17:39 | -27.61661 | -64.14644 | 4004 ft | 205 kts | 275° |
| 2026-05-07 17:40 | -27.61533 | -64.15721 | 3924 ft | 207 kts | 275° |
| 2026-05-07 17:40 | -27.61397 | -64.16809 | 3752 ft | 209 kts | 275° |
| 2026-05-07 17:40 | -27.61198 | -64.18420 | 3667 ft | 203 kts | 275° |
| 2026-05-07 17:40 | -27.61009 | -64.20026 | 3654 ft | 205 kts | 271° |
| 2026-05-07 17:41 | -27.61198 | -64.21540 | 3570 ft | 188 kts | 242° |
| 2026-05-07 17:41 | -27.62068 | -64.22566 | 3247 ft | 182 kts | 209° |
| 2026-05-07 17:41 | -27.63216 | -64.23146 | 2861 ft | 179 kts | 205° |
| 2026-05-07 17:41 | -27.64267 | -64.23708 | 2808 ft | 159 kts | 207° |
| 2026-05-07 17:42 | -27.65275 | -64.24276 | 2720 ft | 161 kts | 208° |
| 2026-05-07 17:42 | -27.66267 | -64.24852 | 2579 ft | 160 kts | 208° |
| 2026-05-07 17:42 | -27.67246 | -64.25432 | 2452 ft | 159 kts | 208° |
| 2026-05-07 17:42 | -27.68212 | -64.26008 | 2288 ft | 148 kts | 208° |
| 2026-05-07 17:43 | -27.69096 | -64.26542 | 2084 ft | 141 kts | 208° |
| 2026-05-07 17:43 | -27.69961 | -64.27065 | 1900 ft | 141 kts | 208° |
| 2026-05-07 17:43 | -27.70825 | -64.27586 | 1715 ft | 141 kts | 208° |
| 2026-05-07 17:43 | -27.71687 | -64.28108 | 1528 ft | 140 kts | 207° |
| 2026-05-07 17:44 | -27.72547 | -64.28626 | 1342 ft | 140 kts | 207° |
| 2026-05-07 17:44 | -27.73417 | -64.29150 | 1153 ft | 141 kts | 207° |
| 2026-05-07 17:44 | -27.74277 | -64.29656 | 971 ft | 141 kts | 205° |
| 2026-05-07 17:44 | -27.75161 | -64.30164 | 790 ft | 142 kts | 206° |
| 2026-05-07 17:45 | -27.76002 | -64.30663 | 666 ft | 126 kts | 208° |
| 2026-05-07 17:45 | -27.76586 | -64.31010 | 664 ft | 57 kts | 208° |
| 2026-05-07 17:45 | -27.76833 | -64.31152 | 664 ft | 19 kts | 206° |
| 2026-05-07 17:45 | -27.76905 | -64.31190 | 664 ft | 4 kts | 249° |
| 2026-05-07 17:46 | -27.76879 | -64.31197 | 664 ft | 8 kts | 36° |
| 2026-05-07 17:46 | -27.76795 | -64.31135 | 664 ft | 19 kts | 28° |
| 2026-05-07 17:46 | -27.76624 | -64.31039 | 664 ft | 52 kts | 29° |
| 2026-05-07 17:46 | -27.76221 | -64.30795 | 664 ft | 63 kts | 28° |
| 2026-05-07 17:47 | -27.75949 | -64.30631 | 664 ft | 27 kts | 30° |
| 2026-05-07 17:47 | -27.75823 | -64.30515 | 664 ft | 20 kts | 50° |
| 2026-05-07 17:47 | -27.75755 | -64.30396 | 664 ft | 14 kts | 64° |
| 2026-05-07 17:47 | -27.75722 | -64.30290 | 664 ft | 14 kts | 74° |
| 2026-05-07 17:48 | -27.75697 | -64.30190 | 664 ft | 12 kts | 73° |
| 2026-05-07 17:48 | -27.75674 | -64.30102 | 664 ft | 10 kts | 73° |
| 2026-05-07 17:48 | -27.75655 | -64.30032 | 664 ft | 7 kts | 69° |
| 2026-05-07 17:48 | -27.75619 | -64.29997 | 664 ft | 3 kts | 39° |
| 2026-05-07 17:49 | -27.75604 | -64.29980 | 664 ft | 1 kts | 51° |
| 2026-05-07 17:49 | -27.75600 | -64.29970 | 664 ft | 0 kts | 76° |
| 2026-05-07 17:49 | -27.75601 | -64.29964 | 664 ft | 0 kts | 103° |